KVIH/VIH METAR and TAF weather

Enter ICAO airport designator
Station Type Date Time Source
KVIH METAR 2019/09/21 04:53 UTC NOAA

KVIH 210453Z AUTO 19007KT 10SM SCT065 22/19 A3011 RMK AO2 SLP184 T02220189


Station Type Date Time Source
KVIH Decoded METAR 2019/09/21 04:53 UTC NOAA

ROLLA/VICHY ROLLA NATIONAL, MO, United States (KVIH) 38-08N 91-46W 333M
Sep 21, 2019 - 12:53 AM EDT / 2019.09.21 0453 UTC
Wind: from the S (190 degrees) at 8 MPH (7 KT):0
Visibility: 10 mile(s):0
Sky conditions: partly cloudy
Temperature: 72.0 F (22.2 C)
Dew Point: 66.0 F (18.9 C)
Relative Humidity: 81%
Pressure (altimeter): 30.11 in. Hg (1019 hPa)
ob: KVIH 210453Z AUTO 19007KT 10SM SCT065 22/19 A3011 RMK AO2 SLP184 T02220189
cycle: 5

Station Type Date Time Source
KVIH TAF UTC NOAA

Error!

Example: see airport list